createdAt,value
2019-06-08T00:00:47.571Z,46.22
2019-06-08T00:03:04.542Z,48.40
2019-06-08T00:05:21.292Z,46.94
2019-06-08T00:07:38.253Z,46.97
2019-06-08T00:09:55.250Z,46.20
2019-06-08T00:12:12.963Z,46.73
2019-06-08T00:14:30.283Z,46.10
2019-06-08T00:16:47.491Z,46.52
2019-06-08T00:19:04.484Z,46.26
2019-06-08T00:21:21.778Z,47.92
2019-06-08T00:23:38.576Z,47.14
2019-06-08T00:25:55.499Z,48.61
2019-06-08T00:28:12.454Z,48.61
2019-06-08T00:30:30.651Z,47.35
2019-06-08T00:32:47.440Z,47.66
2019-06-08T00:35:04.429Z,47.66
2019-06-08T00:37:21.440Z,50.78
2019-06-08T00:39:38.412Z,49.42
2019-06-08T00:41:55.481Z,48.34
2019-06-08T00:44:12.872Z,46.66
2019-06-08T00:46:30.593Z,44.91
2019-06-08T00:48:47.465Z,44.91
2019-06-08T00:51:04.276Z,45.13
2019-06-08T00:53:21.331Z,43.72
2019-06-08T00:55:38.250Z,43.14
2019-06-08T00:57:55.275Z,42.54
2019-06-08T01:00:12.509Z,44.07
2019-06-08T01:02:29.368Z,46.00
2019-06-08T01:04:46.392Z,49.78
2019-06-08T01:07:03.462Z,47.68
2019-06-08T01:09:20.467Z,49.09
2019-06-08T01:11:37.928Z,45.59
2019-06-08T01:13:56.219Z,46.92
2019-06-08T01:16:13.221Z,48.44
2019-06-08T01:18:30.107Z,47.74
2019-06-08T01:20:46.939Z,46.08
2019-06-08T01:23:03.657Z,45.53
2019-06-08T01:25:21.943Z,45.58
2019-06-08T01:27:39.445Z,49.20
2019-06-08T01:29:56.794Z,49.43
2019-06-08T01:32:13.576Z,49.25
2019-06-08T01:34:30.937Z,49.25
2019-06-08T01:36:47.846Z,47.51
2019-06-08T01:39:05.749Z,46.40
2019-06-08T01:41:23.244Z,50.49
2019-06-08T01:43:40.501Z,50.49
2019-06-08T01:45:57.368Z,47.00
2019-06-08T01:48:20.128Z,46.63
2019-06-08T01:50:33.425Z,45.71
2019-06-08T01:52:50.427Z,44.82
2019-06-08T01:55:07.304Z,45.97
2019-06-08T01:57:25.232Z,46.96
2019-06-08T01:59:42.328Z,48.32
2019-06-08T02:02:01.260Z,47.04
2019-06-08T02:04:18.242Z,46.07
2019-06-08T02:06:34.926Z,45.79
2019-06-08T02:08:51.907Z,46.92
2019-06-08T02:11:08.841Z,45.30
2019-06-08T02:13:26.815Z,43.78
2019-06-08T02:15:43.672Z,49.05
2019-06-08T02:18:00.314Z,46.20
2019-06-08T02:20:17.432Z,46.13
2019-06-08T02:22:35.109Z,45.62
2019-06-08T02:24:52.267Z,45.45
2019-06-08T02:27:09.277Z,45.49
2019-06-08T02:29:27.442Z,44.30
2019-06-08T02:31:48.070Z,45.44
2019-06-08T02:34:03.237Z,44.12
2019-06-08T02:36:20.009Z,43.73
2019-06-08T02:38:36.668Z,45.02
2019-06-08T02:40:53.363Z,42.66
2019-06-08T02:43:10.398Z,43.35
2019-06-08T02:45:29.472Z,42.48
2019-06-08T02:48:04.461Z,43.43
2019-06-08T02:50:40.432Z,43.46
2019-06-08T02:52:57.305Z,45.09
2019-06-08T02:55:14.259Z,44.37
2019-06-08T02:57:33.088Z,44.73
2019-06-08T02:59:49.968Z,44.28
2019-06-08T03:02:07.518Z,43.83
2019-06-08T03:04:25.240Z,43.79
2019-06-08T03:06:42.261Z,43.94
2019-06-08T03:08:59.240Z,43.41
2019-06-08T03:11:16.219Z,43.50
2019-06-08T03:13:33.926Z,45.67
2019-06-08T03:15:51.768Z,44.07
2019-06-08T03:18:08.575Z,47.55
2019-06-08T03:20:25.481Z,47.55
2019-06-08T03:22:44.049Z,45.22
2019-06-08T03:25:02.345Z,47.83
2019-06-08T03:27:19.258Z,45.30
2019-06-08T03:29:37.203Z,44.20
2019-06-08T03:31:56.830Z,45.49
2019-06-08T03:34:13.917Z,47.37
2019-06-08T03:36:30.956Z,45.12
2019-06-08T03:38:47.816Z,45.04
2019-06-08T03:41:04.791Z,46.29
2019-06-08T03:43:21.883Z,44.66
2019-06-08T03:45:40.647Z,44.66
2019-06-08T03:47:57.257Z,43.97
2019-06-08T03:50:14.273Z,44.50
2019-06-08T03:52:31.066Z,44.35
2019-06-08T03:54:48.051Z,45.61
2019-06-08T03:57:05.642Z,45.37
2019-06-08T03:59:22.593Z,44.04
2019-06-08T04:01:39.843Z,44.04
2019-06-08T04:04:00.088Z,42.99
2019-06-08T04:06:15.809Z,44.25
2019-06-08T04:08:32.491Z,42.92
2019-06-08T04:10:50.405Z,43.24
2019-06-08T04:13:11.181Z,43.37
2019-06-08T04:15:26.337Z,43.71
2019-06-08T04:17:44.151Z,42.68
2019-06-08T04:20:10.416Z,42.56
2019-06-08T04:22:20.523Z,43.21
2019-06-08T04:24:38.084Z,41.77
2019-06-08T04:26:55.474Z,42.17
2019-06-08T04:29:12.396Z,42.78
2019-06-08T04:31:29.597Z,43.38
2019-06-08T04:33:46.783Z,44.31
2019-06-08T04:36:03.963Z,42.32
2019-06-08T04:38:21.245Z,44.84
2019-06-08T04:40:39.575Z,42.65
2019-06-08T04:42:57.336Z,41.43
2019-06-08T04:45:14.418Z,41.62
2019-06-08T04:47:31.481Z,43.27
2019-06-08T04:49:48.922Z,42.02
2019-06-08T04:52:06.428Z,41.90
2019-06-08T04:54:24.630Z,43.08
2019-06-08T04:56:42.773Z,41.40
2019-06-08T04:58:59.891Z,41.02
2019-06-08T05:01:16.487Z,42.10
2019-06-08T05:03:34.836Z,42.09
2019-06-08T05:05:51.534Z,41.91
2019-06-08T05:08:08.516Z,41.84
2019-06-08T05:10:25.590Z,41.85
2019-06-08T05:12:45.622Z,40.90
2019-06-08T05:15:03.327Z,42.52
2019-06-08T05:17:21.372Z,42.64
2019-06-08T05:19:39.242Z,42.32
2019-06-08T05:21:57.833Z,43.37
2019-06-08T05:24:14.867Z,43.37
2019-06-08T05:26:31.570Z,43.66
2019-06-08T05:28:49.559Z,43.65
2019-06-08T05:31:06.581Z,43.80
2019-06-08T05:33:24.035Z,43.80
2019-06-08T05:35:41.407Z,44.32
2019-06-08T05:37:58.488Z,42.88
2019-06-08T05:40:15.493Z,41.25
2019-06-08T05:42:32.485Z,42.24
2019-06-08T05:44:50.262Z,39.85
2019-06-08T05:47:07.529Z,39.27
2019-06-08T05:49:24.512Z,40.68
2019-06-08T05:51:41.802Z,40.44
2019-06-08T05:53:59.241Z,39.87
2019-06-08T05:56:16.337Z,38.82
2019-06-08T05:58:33.542Z,38.73
2019-06-08T06:00:51.581Z,39.22
2019-06-08T06:03:08.496Z,39.22
2019-06-08T06:05:25.423Z,39.19
2019-06-08T06:07:42.686Z,38.74
2019-06-08T06:09:59.789Z,38.84
2019-06-08T06:12:16.762Z,37.29
2019-06-08T06:14:36.892Z,37.82
2019-06-08T06:16:53.450Z,37.82
2019-06-08T06:19:10.679Z,38.89
2019-06-08T06:21:28.971Z,36.53
2019-06-08T06:23:47.219Z,36.53
2019-06-08T06:26:04.588Z,37.18
2019-06-08T06:28:21.526Z,36.27
2019-06-08T06:30:38.656Z,36.33
2019-06-08T06:32:56.000Z,36.69
2019-06-08T06:35:14.275Z,35.90
2019-06-08T06:37:31.248Z,35.18
2019-06-08T06:39:49.957Z,34.77
2019-06-08T06:42:07.363Z,36.07
2019-06-08T06:44:24.387Z,34.69
2019-06-08T06:46:41.891Z,36.86
2019-06-08T06:48:58.673Z,34.49
2019-06-08T06:51:25.607Z,34.86
2019-06-08T06:53:33.682Z,35.50
2019-06-08T06:55:51.485Z,33.53
2019-06-08T06:58:08.340Z,33.53
2019-06-08T07:00:32.754Z,33.48
2019-06-08T07:02:50.049Z,31.70
2019-06-08T07:05:07.357Z,31.70
2019-06-08T07:07:24.490Z,30.76
2019-06-08T07:09:41.820Z,29.53
2019-06-08T07:11:58.565Z,30.33
2019-06-08T07:14:15.461Z,32.68
2019-06-08T07:16:32.524Z,31.75
2019-06-08T07:18:50.244Z,31.70
2019-06-08T07:21:07.490Z,29.81
2019-06-08T07:23:24.475Z,29.41
2019-06-08T07:25:41.644Z,31.84
2019-06-08T07:27:59.387Z,30.00
2019-06-08T07:30:17.016Z,28.46
2019-06-08T07:32:33.723Z,28.54
2019-06-08T07:34:51.540Z,27.72
2019-06-08T07:37:08.439Z,26.83
2019-06-08T07:39:26.223Z,26.83
2019-06-08T07:41:43.296Z,25.92
2019-06-08T07:44:00.466Z,26.74
2019-06-08T07:46:17.487Z,28.86
2019-06-08T07:48:34.511Z,27.81
2019-06-08T07:50:52.230Z,28.15
2019-06-08T07:53:09.668Z,29.79
2019-06-08T07:55:26.532Z,28.54
2019-06-08T07:57:43.706Z,27.46
2019-06-08T08:00:00.507Z,26.82
2019-06-08T08:02:18.531Z,26.13
2019-06-08T08:04:38.107Z,25.05
2019-06-08T08:06:56.593Z,25.79
2019-06-08T08:09:13.670Z,23.70
2019-06-08T08:11:30.897Z,25.17
2019-06-08T08:13:50.149Z,24.58
2019-06-08T08:16:06.958Z,23.71
2019-06-08T08:18:24.055Z,24.54
2019-06-08T08:20:40.670Z,23.80
2019-06-08T08:23:04.141Z,23.98
2019-06-08T08:25:18.260Z,23.54
2019-06-08T08:27:37.614Z,23.58
2019-06-08T08:29:55.352Z,22.35
2019-06-08T08:32:12.541Z,22.32
2019-06-08T08:34:29.465Z,22.32
2019-06-08T08:36:50.532Z,23.21
2019-06-08T08:39:08.652Z,23.21
2019-06-08T08:41:27.792Z,24.73
2019-06-08T08:43:44.286Z,24.73
2019-06-08T08:46:02.009Z,24.58
2019-06-08T08:48:25.350Z,23.22
2019-06-08T08:50:38.328Z,23.60
2019-06-08T08:52:58.480Z,22.72
2019-06-08T08:55:13.861Z,21.72
2019-06-08T08:57:31.007Z,21.26
2019-06-08T08:59:50.382Z,21.64
2019-06-08T09:02:10.995Z,22.18
2019-06-08T09:04:27.768Z,23.27
2019-06-08T09:06:45.238Z,24.58
2019-06-08T09:09:03.645Z,23.59
2019-06-08T09:11:21.616Z,24.26
2019-06-08T09:13:38.449Z,24.51
2019-06-08T09:15:55.844Z,24.74
2019-06-08T09:18:13.128Z,24.25
2019-06-08T09:20:31.480Z,23.79
2019-06-08T09:22:56.824Z,23.02
2019-06-08T09:25:08.786Z,22.17
2019-06-08T09:27:28.057Z,24.01
2019-06-08T09:29:45.055Z,21.62
2019-06-08T09:32:03.473Z,23.02
2019-06-08T09:34:20.754Z,22.48
2019-06-08T09:36:40.725Z,22.06
2019-06-08T09:38:59.629Z,21.48
2019-06-08T09:41:15.535Z,20.94
2019-06-08T09:43:32.772Z,21.84
2019-06-08T09:45:55.369Z,20.86
2019-06-08T09:48:13.127Z,20.78
2019-06-08T09:50:31.554Z,20.55
2019-06-08T09:53:06.054Z,21.53
2019-06-08T09:55:09.715Z,20.12
2019-06-08T09:57:28.581Z,19.81
2019-06-08T09:59:48.080Z,20.13
2019-06-08T10:02:09.394Z,21.65
2019-06-08T10:04:25.606Z,21.34
2019-06-08T10:06:43.833Z,19.76
2019-06-08T10:09:02.794Z,19.43
2019-06-08T10:11:23.861Z,19.28
2019-06-08T10:13:43.395Z,20.60
2019-06-08T10:16:03.091Z,19.31
2019-06-08T10:18:18.574Z,18.42
2019-06-08T10:20:38.245Z,18.14
2019-06-08T10:22:54.807Z,18.96
2019-06-08T10:25:12.941Z,18.75
2019-06-08T10:27:29.659Z,17.31
2019-06-08T10:29:48.375Z,17.41
2019-06-08T10:32:08.892Z,16.65
2019-06-08T10:34:27.311Z,17.71
2019-06-08T10:36:45.936Z,18.82
2019-06-08T10:39:07.249Z,17.86
2019-06-08T10:41:23.832Z,18.36
2019-06-08T10:43:42.591Z,17.43
2019-06-08T10:46:05.325Z,17.41
2019-06-08T10:48:19.507Z,18.14
2019-06-08T10:50:37.076Z,19.06
2019-06-08T10:52:54.110Z,17.13
2019-06-08T10:55:12.227Z,17.05
2019-06-08T10:57:30.492Z,16.74
2019-06-08T10:59:48.760Z,16.16
2019-06-08T11:02:11.314Z,16.28
2019-06-08T11:04:28.507Z,16.94
2019-06-08T11:06:47.695Z,16.94
2019-06-08T11:09:07.447Z,15.43
2019-06-08T11:11:23.249Z,15.43
2019-06-08T11:13:41.252Z,14.19
2019-06-08T11:16:00.281Z,15.43
2019-06-08T11:18:18.639Z,18.28
2019-06-08T11:20:38.150Z,18.33
2019-06-08T11:22:57.845Z,17.74
2019-06-08T11:25:16.348Z,18.92
2019-06-08T11:27:33.571Z,18.92
2019-06-08T11:29:50.815Z,17.82
2019-06-08T11:32:10.923Z,18.50
2019-06-08T11:34:28.717Z,16.91
2019-06-08T11:36:48.395Z,17.65
2019-06-08T11:39:06.763Z,17.50
2019-06-08T11:41:24.306Z,17.50
2019-06-08T11:43:41.288Z,17.19
2019-06-08T11:46:02.487Z,16.77
2019-06-08T11:48:19.988Z,18.14
2019-06-08T11:50:41.978Z,18.14
2019-06-08T11:53:00.640Z,19.44
2019-06-08T11:55:18.214Z,19.44
2019-06-08T11:57:37.409Z,20.27
2019-06-08T11:59:54.511Z,20.07
2019-06-08T12:02:14.148Z,20.48
2019-06-08T12:04:31.345Z,20.44
2019-06-08T12:06:48.517Z,20.19
2019-06-08T12:09:09.195Z,20.53
2019-06-08T12:11:28.018Z,21.32
2019-06-08T12:13:46.906Z,19.71
2019-06-08T12:16:03.467Z,19.71
2019-06-08T12:18:21.553Z,21.28
2019-06-08T12:20:38.682Z,19.87
2019-06-08T12:22:56.095Z,19.64
2019-06-08T12:25:14.832Z,20.59
2019-06-08T12:27:36.390Z,19.25
2019-06-08T12:29:52.974Z,19.20
2019-06-08T12:32:12.755Z,20.34
2019-06-08T12:34:33.063Z,19.79
2019-06-08T12:36:49.945Z,20.16
2019-06-08T12:39:08.289Z,19.35
2019-06-08T12:41:25.472Z,20.06
2019-06-08T12:43:42.624Z,20.34
2019-06-08T12:46:01.139Z,21.26
2019-06-08T12:48:23.392Z,19.30
2019-06-08T12:50:38.658Z,21.15
2019-06-08T12:52:58.390Z,19.65
2019-06-08T12:55:20.180Z,18.91
2019-06-08T12:57:34.444Z,20.31
2019-06-08T12:59:52.618Z,19.96
2019-06-08T13:02:12.883Z,19.31
2019-06-08T13:04:29.426Z,19.44
2019-06-08T13:06:48.615Z,19.73
2019-06-08T13:09:10.073Z,18.15
2019-06-08T13:11:28.248Z,20.11
2019-06-08T13:13:45.356Z,19.52
2019-06-08T13:16:02.348Z,20.72
2019-06-08T13:18:20.168Z,20.41
2019-06-08T13:20:38.923Z,20.44
2019-06-08T13:22:57.599Z,20.05
2019-06-08T13:25:28.847Z,20.87
2019-06-08T13:27:34.458Z,20.81
2019-06-08T13:29:51.555Z,20.32
2019-06-08T13:32:09.856Z,19.00
2019-06-08T13:34:28.419Z,17.88
2019-06-08T13:36:48.505Z,19.12
2019-06-08T13:39:09.871Z,17.50
2019-06-08T13:41:29.921Z,16.62
2019-06-08T13:43:47.813Z,16.62
2019-06-08T13:46:05.243Z,17.33
2019-06-08T13:48:23.347Z,17.02
2019-06-08T13:50:40.354Z,16.14
2019-06-08T13:53:00.452Z,16.62
2019-06-08T13:55:36.317Z,16.97
2019-06-08T13:57:38.826Z,16.56
2019-06-08T13:59:57.866Z,18.52
2019-06-08T14:02:17.817Z,18.62
2019-06-08T14:04:39.464Z,18.55
2019-06-08T14:06:54.834Z,19.14
2019-06-08T14:09:12.139Z,19.91
2019-06-08T14:11:29.112Z,18.95
2019-06-08T14:13:48.044Z,19.31
2019-06-08T14:16:05.433Z,18.96
2019-06-08T14:18:26.256Z,18.50
2019-06-08T14:20:42.794Z,18.15
2019-06-08T14:23:00.635Z,17.54
2019-06-08T14:25:20.079Z,18.36
2019-06-08T14:27:37.478Z,17.89
2019-06-08T14:29:58.308Z,17.89
2019-06-08T14:32:18.899Z,17.65
2019-06-08T14:34:35.238Z,18.27
2019-06-08T14:36:52.270Z,18.27
2019-06-08T14:39:10.972Z,17.93
2019-06-08T14:41:31.152Z,18.46
2019-06-08T14:43:50.549Z,16.26
2019-06-08T14:46:08.111Z,16.04
2019-06-08T14:48:28.163Z,16.17
2019-06-08T14:50:43.604Z,14.96
2019-06-08T14:53:00.853Z,15.19
2019-06-08T14:55:20.104Z,16.31
2019-06-08T14:57:37.505Z,16.63
2019-06-08T14:59:58.181Z,16.63
2019-06-08T15:02:14.348Z,16.00
2019-06-08T15:04:35.987Z,17.11
2019-06-08T15:06:50.254Z,17.30
2019-06-08T15:09:08.635Z,18.56
2019-06-08T15:11:30.993Z,18.11
2019-06-08T15:13:48.743Z,18.45
2019-06-08T15:16:08.139Z,18.45
2019-06-08T15:18:25.851Z,18.36
2019-06-08T15:20:43.692Z,17.92
2019-06-08T15:23:03.525Z,18.40
2019-06-08T15:25:20.575Z,18.40
2019-06-08T15:27:38.896Z,19.69
2019-06-08T15:29:58.623Z,18.17
2019-06-08T15:32:17.824Z,18.99
2019-06-08T15:34:34.680Z,18.86
2019-06-08T15:36:51.604Z,18.48
2019-06-08T15:39:08.761Z,18.65
2019-06-08T15:41:26.547Z,18.63
2019-06-08T15:43:44.251Z,18.63
2019-06-08T15:46:01.236Z,18.69
2019-06-08T15:48:20.387Z,19.62
2019-06-08T15:50:37.863Z,19.29
2019-06-08T15:52:59.820Z,18.83
2019-06-08T15:55:14.427Z,20.81
2019-06-08T15:57:36.594Z,19.25
2019-06-08T15:59:50.844Z,19.91
2019-06-08T16:02:07.658Z,21.13
2019-06-08T16:04:25.697Z,20.55
2019-06-08T16:06:42.565Z,20.43
2019-06-08T16:08:59.844Z,20.43
2019-06-08T16:11:19.040Z,21.26
2019-06-08T16:13:36.530Z,20.57
2019-06-08T16:15:54.546Z,20.35
2019-06-08T16:18:11.981Z,20.53
2019-06-08T16:20:29.618Z,24.69
2019-06-08T16:22:46.658Z,23.28
2019-06-08T16:25:04.038Z,22.21
2019-06-08T19:44:29.371Z,22.72
2019-06-08T19:46:47.547Z,23.52
2019-06-08T19:49:07.848Z,23.62
2019-06-08T19:51:27.627Z,23.22
2019-06-08T19:53:46.566Z,24.22
2019-06-08T19:56:03.522Z,23.86
2019-06-08T19:58:22.965Z,23.62
2019-06-08T20:00:41.104Z,23.99
2019-06-08T20:03:01.017Z,23.81
2019-06-08T20:05:18.440Z,24.04
2019-06-08T20:07:37.890Z,24.16
2019-06-08T20:09:57.106Z,24.59
2019-06-08T20:12:14.533Z,24.96
2019-06-08T20:14:32.023Z,24.50
2019-06-08T20:16:50.921Z,24.73
2019-06-08T20:19:10.931Z,24.99
2019-06-08T20:21:30.247Z,27.74
2019-06-08T20:23:49.767Z,25.78
2019-06-08T20:26:08.328Z,26.18
2019-06-08T20:28:28.254Z,26.18
2019-06-08T20:30:46.683Z,25.31
2019-06-08T20:33:04.020Z,25.10
2019-06-08T20:35:21.265Z,24.75
2019-06-08T20:37:38.507Z,25.15
2019-06-08T20:40:07.137Z,25.00
2019-06-08T20:42:14.083Z,25.01
2019-06-08T20:44:31.429Z,25.35
2019-06-08T20:46:49.557Z,25.29
2019-06-08T20:49:08.396Z,26.01
2019-06-08T20:51:27.717Z,26.61
2019-06-08T20:53:44.510Z,26.10
2019-06-08T20:56:01.486Z,26.82
2019-06-08T20:58:18.650Z,26.05
2019-06-08T21:00:37.761Z,26.05
2019-06-08T21:03:01.721Z,26.07
2019-06-08T21:05:14.026Z,25.39
2019-06-08T21:07:31.036Z,25.24
2019-06-08T21:09:50.746Z,25.65
2019-06-08T21:12:06.712Z,25.49
2019-06-08T21:14:27.205Z,25.56
2019-06-08T21:16:43.095Z,25.56
2019-06-08T21:18:59.837Z,25.37
2019-06-08T21:21:17.542Z,25.53
2019-06-08T21:23:34.307Z,25.94
2019-06-08T21:25:56.344Z,25.93
2019-06-08T21:28:12.630Z,25.93
2019-06-08T21:30:32.040Z,26.13
2019-06-08T21:32:52.922Z,26.87
2019-06-08T21:35:08.247Z,26.15
2019-06-08T21:37:28.100Z,28.02
2019-06-08T21:39:44.487Z,27.94
2019-06-08T21:42:03.243Z,27.06
2019-06-08T21:44:19.974Z,27.18
2019-06-08T21:46:38.075Z,26.87
2019-06-08T21:48:56.863Z,26.36
2019-06-08T21:51:14.326Z,28.30
2019-06-08T21:53:32.796Z,27.09
2019-06-08T21:55:50.719Z,27.46
2019-06-08T21:58:09.413Z,28.00
2019-06-08T22:00:39.170Z,28.01
2019-06-08T22:02:47.972Z,29.09
2019-06-08T22:05:08.816Z,30.45
2019-06-08T22:07:25.690Z,28.42
2019-06-08T22:09:44.274Z,27.71
2019-06-08T22:12:01.287Z,29.34
2019-06-08T22:14:18.261Z,27.95
2019-06-08T22:16:38.060Z,27.74
2019-06-08T22:18:54.910Z,27.98
2019-06-08T22:21:12.323Z,28.69
2019-06-08T22:23:29.423Z,29.26
2019-06-08T22:25:47.726Z,27.99
2019-06-08T22:28:07.127Z,27.96
2019-06-08T22:30:36.366Z,28.39
2019-06-08T22:32:43.477Z,28.54
2019-06-08T22:35:01.827Z,27.70
2019-06-08T22:37:19.081Z,27.40
2019-06-08T22:39:37.434Z,27.44
2019-06-08T22:41:55.476Z,27.80
2019-06-08T22:44:12.644Z,27.73
2019-06-08T22:46:29.481Z,28.04
2019-06-08T22:48:47.756Z,28.11
2019-06-08T22:51:04.690Z,28.17
2019-06-08T22:53:21.523Z,29.51
2019-06-08T22:55:38.458Z,29.51
2019-06-08T22:57:55.420Z,28.73
2019-06-08T23:00:17.579Z,29.56
2019-06-08T23:02:31.250Z,29.56
2019-06-08T23:04:48.015Z,29.31
2019-06-08T23:07:07.007Z,31.32
2019-06-08T23:09:23.399Z,28.80
2019-06-08T23:11:40.445Z,28.80
2019-06-08T23:14:00.797Z,29.09
2019-06-08T23:16:18.219Z,28.42
2019-06-08T23:18:37.363Z,29.26
2019-06-08T23:20:57.401Z,30.01
2019-06-08T23:23:14.225Z,29.92
2019-06-08T23:25:31.265Z,30.55
2019-06-08T23:27:48.497Z,29.44
2019-06-08T23:30:09.969Z,30.18
2019-06-08T23:32:27.498Z,30.07
2019-06-08T23:34:43.992Z,29.13
2019-06-08T23:37:05.583Z,29.57
2019-06-08T23:39:19.544Z,28.64
2019-06-08T23:41:37.744Z,28.40
2019-06-08T23:43:54.442Z,28.51
2019-06-08T23:46:11.250Z,28.51
2019-06-08T23:48:28.250Z,28.59
2019-06-08T23:50:47.243Z,28.62
2019-06-08T23:53:04.342Z,28.45
2019-06-08T23:55:21.378Z,28.45
2019-06-08T23:57:38.557Z,29.10
2019-06-08T23:59:55.619Z,29.30
